Time;durP1;ratioP1;P1;durP2;ratioP2;P2;SDS_P1;SDS_P2;PMS_P1;PMS_P2;Temp;Humidity;BMP_temperature;BMP_pressure;BME280_temperature;BME280_humidity;BME280_pressure;Samples;Min_cycle;Max_cycle;Signal;HPM_P1;HPM_P2
2022/02/27 00:02:09;;;;;;;0.10;0.10;;;;;;;;;;5022521;28;20554;-95
2022/02/27 00:04:38;;;;;;;0.00;0.00;;;;;;;;;;5004352;28;20115;-94
2022/02/27 00:07:07;;;;;;;0.00;0.00;;;;;;;;;;4988551;28;20132;-96
2022/02/27 00:09:33;;;;;;;0.10;0.10;;;;;;;;;;5019962;28;20455;-95
2022/02/27 00:11:59;;;;;;;0.10;0.10;;;;;;;;;;4999688;28;20037;-95
2022/02/27 00:14:25;;;;;;;0.10;0.10;;;;;;;;;;4983526;28;20064;-95
2022/02/27 00:16:51;;;;;;;0.00;0.00;;;;;;;;;;4984126;28;20038;-95
2022/02/27 00:19:18;;;;;;;0.10;0.10;;;;;;;;;;5000742;28;20042;-96
2022/02/27 00:21:44;;;;;;;0.10;0.10;;;;;;;;;;4984427;28;20105;-96
2022/02/27 00:24:10;;;;;;;0.10;0.10;;;;;;;;;;4999658;28;20042;-95
2022/02/27 00:26:36;;;;;;;0.10;0.10;;;;;;;;;;4983529;28;20437;-96
2022/02/27 00:29:02;;;;;;;0.00;0.00;;;;;;;;;;4983582;28;20026;-95
2022/02/27 00:31:28;;;;;;;0.10;0.10;;;;;;;;;;4983726;28;20060;-95
2022/02/27 00:33:54;;;;;;;0.00;0.00;;;;;;;;;;4983131;28;20520;-94
2022/02/27 00:36:23;;;;;;;0.00;0.00;;;;;;;;;;4983917;28;20045;-96
2022/02/27 00:38:49;;;;;;;0.00;0.00;;;;;;;;;;4999557;28;20046;-96
2022/02/27 00:41:15;;;;;;;0.10;0.10;;;;;;;;;;4999429;28;20042;-95
2022/02/27 00:43:41;;;;;;;0.10;0.10;;;;;;;;;;5015590;28;20149;-96
2022/02/27 00:46:07;;;;;;;0.00;0.00;;;;;;;;;;4999114;28;20205;-96
2022/02/27 00:48:34;;;;;;;0.03;0.03;;;;;;;;;;4998789;28;20068;-95
2022/02/27 00:51:00;;;;;;;0.10;0.10;;;;;;;;;;4983775;28;20037;-96
2022/02/27 00:53:26;;;;;;;0.10;0.10;;;;;;;;;;5017813;28;20077;-96
2022/02/27 00:55:53;;;;;;;0.00;0.00;;;;;;;;;;4984493;28;20046;-96
2022/02/27 00:58:19;;;;;;;0.00;0.00;;;;;;;;;;5002853;28;20093;-96
2022/02/27 01:00:46;;;;;;;0.10;0.10;;;;;;;;;;4994652;28;20157;-95
2022/02/27 01:03:23;;;;;;;0.10;0.10;;;;;;;;;;4998953;28;20069;-96
2022/02/27 01:05:49;;;;;;;0.00;0.00;;;;;;;;;;5020857;28;20043;-94
2022/02/27 01:08:21;;;;;;;0.10;0.10;;;;;;;;;;5020544;28;20041;-96
2022/02/27 01:10:47;;;;;;;0.00;0.00;;;;;;;;;;5030697;28;20037;-96
2022/02/27 01:13:16;;;;;;;0.00;0.00;;;;;;;;;;5008940;28;20033;-95
2022/02/27 01:15:47;;;;;;;0.00;0.00;;;;;;;;;;5033776;28;20040;-96
2022/02/27 01:18:13;;;;;;;0.10;0.10;;;;;;;;;;5034224;28;20076;-96
2022/02/27 01:20:39;;;;;;;0.00;0.00;;;;;;;;;;5050257;28;20049;-93
2022/02/27 01:23:10;;;;;;;0.10;0.10;;;;;;;;;;5036685;28;20041;-92
2022/02/27 01:25:36;;;;;;;0.10;0.10;;;;;;;;;;5021300;28;20050;-96
2022/02/27 01:28:02;;;;;;;0.10;0.10;;;;;;;;;;5023683;28;20058;-95
2022/02/27 01:30:28;;;;;;;0.10;0.10;;;;;;;;;;5023447;28;20411;-94
2022/02/27 01:32:57;;;;;;;0.10;0.10;;;;;;;;;;5010837;28;20033;-95
2022/02/27 01:35:23;;;;;;;0.10;0.10;;;;;;;;;;5006403;28;20043;-94
2022/02/27 01:37:49;;;;;;;0.10;0.10;;;;;;;;;;5022723;28;20044;-95
2022/02/27 01:40:15;;;;;;;0.00;0.00;;;;;;;;;;5005958;28;20087;-94
2022/02/27 01:42:51;;;;;;;0.10;0.10;;;;;;;;;;5022833;28;20095;-96
2022/02/27 01:45:17;;;;;;;0.10;0.10;;;;;;;;;;5024398;28;20045;-96
2022/02/27 01:47:44;;;;;;;0.00;0.00;;;;;;;;;;5020758;28;20479;-95
2022/02/27 01:50:10;;;;;;;0.10;0.10;;;;;;;;;;5020318;28;20108;-95
2022/02/27 01:52:36;;;;;;;0.00;0.00;;;;;;;;;;5005216;28;20043;-95
2022/02/27 01:55:02;;;;;;;0.00;0.00;;;;;;;;;;5037619;28;20175;-94
2022/02/27 01:57:28;;;;;;;0.10;0.10;;;;;;;;;;5020363;28;20037;-95
2022/02/27 01:59:55;;;;;;;0.10;0.10;;;;;;;;;;5004024;28;20519;-96
2022/02/27 02:02:21;;;;;;;0.00;0.00;;;;;;;;;;5020507;28;20091;-95
2022/02/27 02:04:47;;;;;;;0.10;0.10;;;;;;;;;;5020153;28;20506;-95
2022/02/27 02:07:13;;;;;;;0.10;0.10;;;;;;;;;;5003501;28;20044;-95
2022/02/27 02:09:39;;;;;;;0.10;0.10;;;;;;;;;;5019969;28;20040;-95
2022/02/27 02:12:08;;;;;;;0.00;0.00;;;;;;;;;;5004284;28;20455;-96
2022/02/27 02:14:35;;;;;;;0.22;0.22;;;;;;;;;;5020525;28;20041;-96
2022/02/27 02:17:01;;;;;;;0.10;0.10;;;;;;;;;;5021591;28;20048;-94
2022/02/27 02:19:36;;;;;;;0.00;0.00;;;;;;;;;;5011887;28;20045;-95
2022/02/27 02:22:06;;;;;;;0.10;0.10;;;;;;;;;;5014637;28;20037;-96
2022/02/27 02:24:32;;;;;;;0.10;0.10;;;;;;;;;;5024188;28;20063;-96
2022/02/27 02:27:01;;;;;;;0.10;0.10;;;;;;;;;;5021555;28;20080;-96
2022/02/27 02:29:27;;;;;;;0.10;0.10;;;;;;;;;;5003947;28;20044;-95
2022/02/27 02:31:54;;;;;;;0.10;0.10;;;;;;;;;;5004786;28;20045;-96
2022/02/27 02:34:21;;;;;;;0.10;0.10;;;;;;;;;;5003723;28;20037;-96
2022/02/27 02:36:47;;;;;;;0.10;0.10;;;;;;;;;;5003777;28;20040;-94
2022/02/27 02:39:14;;;;;;;0.10;0.10;;;;;;;;;;5036049;28;20088;-95
2022/02/27 02:41:40;;;;;;;0.00;0.00;;;;;;;;;;5003646;28;20095;-95
2022/02/27 02:44:06;;;;;;;0.10;0.10;;;;;;;;;;5003780;28;20045;-96
2022/02/27 02:46:35;;;;;;;0.00;0.00;;;;;;;;;;5003612;28;20048;-95
2022/02/27 02:49:01;;;;;;;0.10;0.10;;;;;;;;;;5004033;28;20041;-95
2022/02/27 02:51:27;;;;;;;0.00;0.00;;;;;;;;;;5003660;28;20440;-96
2022/02/27 02:53:53;;;;;;;0.10;0.10;;;;;;;;;;5018961;28;20076;-95
2022/02/27 02:56:19;;;;;;;0.00;0.00;;;;;;;;;;5004549;28;20123;-96
2022/02/27 02:58:45;;;;;;;0.10;0.10;;;;;;;;;;5023444;28;20132;-95
2022/02/27 03:01:12;;;;;;;0.10;0.10;;;;;;;;;;5007355;28;20048;-95
2022/02/27 03:03:38;;;;;;;0.10;0.10;;;;;;;;;;5023713;28;20491;-95
2022/02/27 03:06:04;;;;;;;0.10;0.10;;;;;;;;;;5039742;28;20495;-95
2022/02/27 03:08:30;;;;;;;0.00;0.00;;;;;;;;;;5007829;28;20047;-94
2022/02/27 03:10:57;;;;;;;0.00;0.00;;;;;;;;;;5006946;28;20497;-95
2022/02/27 03:13:23;;;;;;;0.00;0.00;;;;;;;;;;5023978;28;20163;-96
2022/02/27 03:15:49;;;;;;;0.10;0.10;;;;;;;;;;5023939;28;20048;-96
2022/02/27 03:18:15;;;;;;;0.10;0.10;;;;;;;;;;5024338;28;20227;-96
2022/02/27 03:20:41;;;;;;;0.10;0.10;;;;;;;;;;5023824;28;20075;-95
2022/02/27 03:23:07;;;;;;;0.10;0.10;;;;;;;;;;5024136;28;20274;-95
2022/02/27 03:25:33;;;;;;;0.10;0.10;;;;;;;;;;5023663;28;20498;-94
2022/02/27 03:28:01;;;;;;;0.10;0.10;;;;;;;;;;5007759;28;20029;-96
2022/02/27 03:30:27;;;;;;;0.10;0.10;;;;;;;;;;5007540;28;20044;-93
2022/02/27 03:32:53;;;;;;;0.10;0.10;;;;;;;;;;5008491;28;20047;-92
2022/02/27 03:35:19;;;;;;;0.10;0.10;;;;;;;;;;5007277;28;20390;-96
2022/02/27 03:37:49;;;;;;;0.10;0.10;;;;;;;;;;5008336;28;20133;-96
2022/02/27 03:40:15;;;;;;;0.10;0.10;;;;;;;;;;5024147;28;20053;-96
2022/02/27 03:42:41;;;;;;;0.10;0.10;;;;;;;;;;5024042;28;20040;-94
2022/02/27 03:45:07;;;;;;;0.00;0.00;;;;;;;;;;5023471;28;20094;-95
2022/02/27 03:47:33;;;;;;;0.00;0.00;;;;;;;;;;5039785;28;20045;-92
2022/02/27 03:49:59;;;;;;;0.10;0.10;;;;;;;;;;5007143;28;20079;-95
2022/02/27 03:52:25;;;;;;;0.10;0.10;;;;;;;;;;5023082;28;20084;-94
2022/02/27 03:54:51;;;;;;;0.00;0.00;;;;;;;;;;5022539;28;20136;-93
2022/02/27 03:57:17;;;;;;;0.10;0.10;;;;;;;;;;5022935;28;20040;-95
2022/02/27 03:59:43;;;;;;;0.00;0.00;;;;;;;;;;5023100;28;20059;-94
2022/02/27 04:02:09;;;;;;;0.10;0.10;;;;;;;;;;5006408;28;20041;-95
2022/02/27 04:04:35;;;;;;;0.10;0.10;;;;;;;;;;5006199;28;20136;-95
2022/02/27 04:07:01;;;;;;;0.10;0.10;;;;;;;;;;5006248;28;20091;-94
2022/02/27 04:09:27;;;;;;;0.00;0.00;;;;;;;;;;5022696;28;20060;-95
2022/02/27 04:11:53;;;;;;;0.10;0.10;;;;;;;;;;5022509;28;20076;-94
2022/02/27 04:14:19;;;;;;;0.10;0.10;;;;;;;;;;5006094;28;20033;-93
2022/02/27 04:16:45;;;;;;;0.10;0.10;;;;;;;;;;5005714;28;20037;-95
2022/02/27 04:19:11;;;;;;;0.10;0.10;;;;;;;;;;5006111;28;20055;-95
2022/02/27 04:21:37;;;;;;;0.10;0.10;;;;;;;;;;5022658;28;20483;-93
2022/02/27 04:24:03;;;;;;;0.00;0.00;;;;;;;;;;5006020;28;20525;-95
2022/02/27 04:26:29;;;;;;;0.10;0.10;;;;;;;;;;5005910;28;20041;-92
2022/02/27 04:28:55;;;;;;;0.00;0.00;;;;;;;;;;5005936;28;20047;-95
2022/02/27 04:31:21;;;;;;;0.00;0.00;;;;;;;;;;5022014;28;20041;-94
2022/02/27 04:33:47;;;;;;;0.10;0.10;;;;;;;;;;5022366;28;20051;-94
2022/02/27 04:36:13;;;;;;;0.10;0.10;;;;;;;;;;5022453;28;20083;-95
2022/02/27 04:38:39;;;;;;;0.57;0.57;;;;;;;;;;5006065;28;20084;-94
2022/02/27 04:41:05;;;;;;;0.10;0.10;;;;;;;;;;5006722;28;20083;-94
2022/02/27 04:43:31;;;;;;;0.10;0.10;;;;;;;;;;5006669;28;20155;-93
2022/02/27 04:45:57;;;;;;;0.00;0.00;;;;;;;;;;5021687;28;20041;-94
2022/02/27 04:48:23;;;;;;;0.00;0.00;;;;;;;;;;5005390;28;20029;-94
2022/02/27 04:50:49;;;;;;;0.10;0.10;;;;;;;;;;5021975;28;20045;-94
2022/02/27 04:53:15;;;;;;;0.00;0.00;;;;;;;;;;5005189;28;20033;-94
2022/02/27 04:55:41;;;;;;;0.00;0.00;;;;;;;;;;5021164;28;20047;-94
2022/02/27 04:58:08;;;;;;;0.00;0.00;;;;;;;;;;5005284;28;20040;-95
2022/02/27 05:00:34;;;;;;;0.10;0.10;;;;;;;;;;5038106;28;20063;-95
2022/02/27 05:03:00;;;;;;;0.00;0.00;;;;;;;;;;5005123;28;20049;-94
2022/02/27 05:05:27;;;;;;;0.00;0.00;;;;;;;;;;5021204;28;20126;-94
2022/02/27 05:07:53;;;;;;;0.00;0.00;;;;;;;;;;5021188;28;20049;-96
2022/02/27 05:10:19;;;;;;;0.10;0.10;;;;;;;;;;5004464;28;20048;-94
2022/02/27 05:12:45;;;;;;;0.10;0.10;;;;;;;;;;5021024;28;20047;-95
2022/02/27 05:15:11;;;;;;;0.10;0.10;;;;;;;;;;5004358;28;20501;-95
2022/02/27 05:17:37;;;;;;;0.05;0.05;;;;;;;;;;5004378;28;20128;-94
2022/02/27 05:20:04;;;;;;;0.10;0.10;;;;;;;;;;5003912;28;20118;-95
2022/02/27 05:22:30;;;;;;;0.10;0.10;;;;;;;;;;5004655;28;20041;-96
2022/02/27 05:24:56;;;;;;;0.10;0.10;;;;;;;;;;5020554;28;20483;-94
2022/02/27 05:27:22;;;;;;;0.10;0.10;;;;;;;;;;5020509;28;20056;-95
2022/02/27 05:29:48;;;;;;;0.10;0.10;;;;;;;;;;5004020;28;20037;-95
2022/02/27 05:32:14;;;;;;;0.10;0.10;;;;;;;;;;5006093;28;20044;-95
2022/02/27 05:34:41;;;;;;;0.10;0.10;;;;;;;;;;5004010;28;20040;-93
2022/02/27 05:37:07;;;;;;;0.10;0.10;;;;;;;;;;5037859;28;20491;-95
2022/02/27 05:39:33;;;;;;;0.10;0.10;;;;;;;;;;5020892;28;20128;-96
2022/02/27 05:41:59;;;;;;;0.10;0.10;;;;;;;;;;5004626;28;20448;-95
2022/02/27 05:44:25;;;;;;;0.00;0.00;;;;;;;;;;5004427;28;20055;-95
2022/02/27 05:46:51;;;;;;;0.10;0.10;;;;;;;;;;5004782;28;20040;-95
2022/02/27 05:49:17;;;;;;;0.10;0.10;;;;;;;;;;5004330;28;20033;-94
2022/02/27 05:51:47;;;;;;;0.10;0.10;;;;;;;;;;5020551;28;20087;-95
2022/02/27 05:54:13;;;;;;;0.10;0.10;;;;;;;;;;5037315;28;20037;-94
2022/02/27 05:56:41;;;;;;;0.00;0.00;;;;;;;;;;5004848;28;20037;-93
2022/02/27 05:59:07;;;;;;;0.10;0.10;;;;;;;;;;5021459;28;20045;-95
2022/02/27 06:01:33;;;;;;;0.10;0.10;;;;;;;;;;5005507;28;20037;-96
2022/02/27 06:03:59;;;;;;;0.05;0.05;;;;;;;;;;5022047;28;20053;-95
2022/02/27 06:06:25;;;;;;;0.00;0.00;;;;;;;;;;5006201;28;20059;-96
2022/02/27 06:08:51;;;;;;;0.03;0.03;;;;;;;;;;5021814;28;20084;-94
2022/02/27 06:11:17;;;;;;;0.10;0.10;;;;;;;;;;5005367;28;20048;-93
2022/02/27 06:13:43;;;;;;;0.00;0.00;;;;;;;;;;5004274;28;20037;-94
2022/02/27 06:16:09;;;;;;;0.00;0.00;;;;;;;;;;5003955;28;20052;-96
2022/02/27 06:18:35;;;;;;;0.10;0.10;;;;;;;;;;5020853;28;20041;-96
2022/02/27 06:21:01;;;;;;;0.00;0.00;;;;;;;;;;5020341;28;20040;-95
2022/02/27 06:23:27;;;;;;;0.10;0.10;;;;;;;;;;5003954;28;20037;-96
2022/02/27 06:25:53;;;;;;;0.10;0.10;;;;;;;;;;5003953;28;20132;-94
2022/02/27 06:28:19;;;;;;;0.10;0.10;;;;;;;;;;5003341;28;20135;-94
2022/02/27 06:30:45;;;;;;;0.00;0.00;;;;;;;;;;5019693;28;20132;-94
2022/02/27 06:33:11;;;;;;;0.00;0.00;;;;;;;;;;5020185;28;20448;-94
2022/02/27 06:35:37;;;;;;;0.10;0.10;;;;;;;;;;5019882;28;20037;-94
2022/02/27 06:38:03;;;;;;;0.00;0.00;;;;;;;;;;5003879;28;20087;-96
2022/02/27 06:40:29;;;;;;;0.00;0.00;;;;;;;;;;5020671;28;20041;-96
2022/02/27 06:42:55;;;;;;;0.00;0.00;;;;;;;;;;5011713;28;20051;-96
2022/02/27 06:45:21;;;;;;;0.10;0.10;;;;;;;;;;5048872;28;20069;-96
2022/02/27 06:47:51;;;;;;;0.03;0.03;;;;;;;;;;5015400;28;20053;-96
2022/02/27 06:50:30;;;;;;;0.10;0.10;;;;;;;;;;5031852;28;20064;-96
2022/02/27 06:53:01;;;;;;;0.08;0.08;;;;;;;;;;5032521;28;20567;-96
2022/02/27 06:55:37;;;;;;;0.10;0.10;;;;;;;;;;5015655;28;20037;-95
2022/02/27 06:58:03;;;;;;;0.00;0.00;;;;;;;;;;5008261;28;20060;-95
2022/02/27 07:00:35;;;;;;;0.00;0.00;;;;;;;;;;5006303;28;20057;-95
2022/02/27 07:03:01;;;;;;;0.00;0.00;;;;;;;;;;5019338;28;20306;-94
2022/02/27 07:05:27;;;;;;;0.10;0.10;;;;;;;;;;5002297;28;20053;-95
2022/02/27 07:07:53;;;;;;;0.00;0.00;;;;;;;;;;5019735;28;20037;-96
2022/02/27 07:10:20;;;;;;;0.00;0.00;;;;;;;;;;5003333;28;20044;-96
2022/02/27 07:12:47;;;;;;;0.00;0.00;;;;;;;;;;5019619;28;20574;-96
2022/02/27 07:15:13;;;;;;;0.00;0.00;;;;;;;;;;5003571;28;20127;-94
2022/02/27 07:17:39;;;;;;;0.00;0.00;;;;;;;;;;5019677;28;20068;-95
2022/02/27 07:20:05;;;;;;;0.08;0.08;;;;;;;;;;5019439;28;20098;-96
2022/02/27 07:22:33;;;;;;;0.00;0.00;;;;;;;;;;5035965;28;20045;-96
2022/02/27 07:24:59;;;;;;;0.00;0.00;;;;;;;;;;5002847;28;20052;-94
2022/02/27 07:27:26;;;;;;;0.00;0.00;;;;;;;;;;5019626;28;20045;-96
2022/02/27 07:29:52;;;;;;;0.00;0.00;;;;;;;;;;5019488;28;20108;-96
2022/02/27 07:32:19;;;;;;;0.00;0.00;;;;;;;;;;5004214;28;20476;-95
2022/02/27 07:34:45;;;;;;;0.10;0.10;;;;;;;;;;5003272;28;20076;-94
2022/02/27 07:37:11;;;;;;;0.20;0.20;;;;;;;;;;5021290;28;20144;-96
2022/02/27 07:39:37;;;;;;;0.03;0.03;;;;;;;;;;5021914;28;20335;-95
2022/02/27 07:42:03;;;;;;;0.00;0.00;;;;;;;;;;5007157;28;20545;-96
2022/02/27 07:44:48;;;;;;;0.10;0.10;;;;;;;;;;5026622;28;20072;-93
2022/02/27 07:47:23;;;;;;;0.00;0.00;;;;;;;;;;5030123;28;20212;-96
2022/02/27 07:49:49;;;;;;;0.10;0.10;;;;;;;;;;5005485;28;20496;-95
2022/02/27 07:52:15;;;;;;;0.00;0.00;;;;;;;;;;4998984;28;20054;-94
2022/02/27 07:54:41;;;;;;;0.10;0.10;;;;;;;;;;4997988;28;20110;-94
2022/02/27 07:57:07;;;;;;;0.10;0.10;;;;;;;;;;4998397;28;20045;-94
2022/02/27 08:05:05;;;;;;;0.10;0.10;;;;;;;;;;5091514;28;20059;-95
2022/02/27 08:07:34;;;;;;;0.10;0.10;;;;;;;;;;5062314;28;20048;-95
2022/02/27 08:10:00;;;;;;;0.10;0.10;;;;;;;;;;5047990;28;20048;-96
2022/02/27 08:12:31;;;;;;;0.10;0.10;;;;;;;;;;5077705;28;20186;-94
2022/02/27 08:15:10;;;;;;;0.10;0.10;;;;;;;;;;5052655;28;20040;-96
2022/02/27 08:17:41;;;;;;;0.10;0.10;;;;;;;;;;5053879;28;20073;-94
2022/02/27 08:20:16;;;;;;;0.10;0.10;;;;;;;;;;5057129;28;20132;-96
2022/02/27 08:22:47;;;;;;;0.10;0.10;;;;;;;;;;5055640;28;20061;-95
2022/02/27 08:25:15;;;;;;;0.10;0.10;;;;;;;;;;5037208;28;20041;-96
2022/02/27 08:27:42;;;;;;;0.45;0.40;;;;;;;;;;5053967;28;20056;-96
2022/02/27 08:30:19;;;;;;;0.10;0.10;;;;;;;;;;5050465;28;20122;-96
2022/02/27 08:32:50;;;;;;;0.10;0.10;;;;;;;;;;5060657;28;20041;-95
2022/02/27 08:35:16;;;;;;;0.10;0.10;;;;;;;;;;5039664;28;20045;-92
2022/02/27 08:37:42;;;;;;;0.10;0.10;;;;;;;;;;5023133;28;20072;-93
2022/02/27 08:40:36;;;;;;;0.70;0.30;;;;;;;;;;5023765;28;20123;-95
2022/02/27 08:43:13;;;;;;;0.10;0.10;;;;;;;;;;5048404;28;20088;-96
2022/02/27 08:45:54;;;;;;;0.10;0.10;;;;;;;;;;5029688;28;20048;-95
2022/02/27 08:48:22;;;;;;;0.10;0.10;;;;;;;;;;5056159;28;20049;-95
2022/02/27 08:50:48;;;;;;;0.10;0.10;;;;;;;;;;5022117;28;20124;-94
2022/02/27 08:53:14;;;;;;;0.20;0.20;;;;;;;;;;5021557;28;20037;-94
2022/02/27 08:55:40;;;;;;;0.20;0.20;;;;;;;;;;5021368;28;20127;-94
2022/02/27 08:58:06;;;;;;;0.10;0.10;;;;;;;;;;5021933;28;20179;-94
2022/02/27 09:00:32;;;;;;;0.10;0.10;;;;;;;;;;5022108;28;20072;-95
2022/02/27 09:02:59;;;;;;;0.10;0.10;;;;;;;;;;5021542;28;20068;-94
2022/02/27 09:05:25;;;;;;;0.68;0.68;;;;;;;;;;5021819;28;20049;-92
2022/02/27 09:07:51;;;;;;;0.15;0.10;;;;;;;;;;5037733;28;20480;-94
2022/02/27 09:10:17;;;;;;;0.47;0.20;;;;;;;;;;5039186;28;20063;-94
2022/02/27 09:12:43;;;;;;;0.17;0.17;;;;;;;;;;5020821;28;20563;-93
2022/02/27 09:15:10;;;;;;;0.20;0.20;;;;;;;;;;5020688;28;20037;-92
2022/02/27 09:17:36;;;;;;;0.10;0.10;;;;;;;;;;5028046;28;20510;-94
2022/02/27 09:20:02;;;;;;;0.20;0.20;;;;;;;;;;5036804;28;20120;-93
2022/02/27 09:22:28;;;;;;;0.10;0.10;;;;;;;;;;5037128;28;20087;-93
2022/02/27 09:24:59;;;;;;;0.10;0.10;;;;;;;;;;5042926;28;20404;-95
2022/02/27 09:27:25;;;;;;;0.10;0.10;;;;;;;;;;4941265;28;20055;-94
2022/02/27 09:29:52;;;;;;;0.20;0.20;;;;;;;;;;4940672;29;20117;-93
2022/02/27 09:32:18;;;;;;;0.15;0.15;;;;;;;;;;4939780;29;20047;-92
2022/02/27 09:34:44;;;;;;;0.15;0.15;;;;;;;;;;4939448;29;20062;-91
2022/02/27 09:37:10;;;;;;;0.10;0.10;;;;;;;;;;4941988;28;20047;-93
2022/02/27 09:39:37;;;;;;;0.10;0.10;;;;;;;;;;4974646;28;20048;-92
2022/02/27 09:42:04;;;;;;;1.13;0.20;;;;;;;;;;4942528;28;20078;-94
2022/02/27 09:44:30;;;;;;;0.10;0.10;;;;;;;;;;4942425;28;20082;-90
2022/02/27 09:46:56;;;;;;;0.10;0.10;;;;;;;;;;4942068;28;20109;-92
2022/02/27 09:49:22;;;;;;;0.25;0.25;;;;;;;;;;4942374;28;20070;-92
2022/02/27 09:51:50;;;;;;;0.10;0.10;;;;;;;;;;4974841;28;20055;-91
2022/02/27 09:54:16;;;;;;;0.10;0.10;;;;;;;;;;4974217;28;20150;-92
2022/02/27 09:56:42;;;;;;;0.38;0.38;;;;;;;;;;4942276;28;20039;-92
2022/02/27 09:59:08;;;;;;;0.20;0.20;;;;;;;;;;4941954;28;20069;-91
2022/02/27 10:01:38;;;;;;;0.20;0.20;;;;;;;;;;4974174;28;20054;-92
2022/02/27 10:04:20;;;;;;;0.10;0.10;;;;;;;;;;4942459;28;20058;-92
2022/02/27 10:06:50;;;;;;;0.17;0.17;;;;;;;;;;4973467;28;20094;-92
2022/02/27 10:09:23;;;;;;;0.10;0.10;;;;;;;;;;4942300;28;20570;-95
2022/02/27 10:11:49;;;;;;;0.10;0.10;;;;;;;;;;4958992;28;20042;-92
2022/02/27 10:14:23;;;;;;;0.10;0.10;;;;;;;;;;4961034;28;20039;-93
2022/02/27 10:16:49;;;;;;;0.10;0.10;;;;;;;;;;4958540;28;20442;-89
2022/02/27 10:19:17;;;;;;;0.43;0.40;;;;;;;;;;4958419;28;20039;-91
2022/02/27 10:21:45;;;;;;;0.10;0.10;;;;;;;;;;4973753;28;20077;-91
2022/02/27 10:24:11;;;;;;;0.38;0.25;;;;;;;;;;4957598;28;20397;-91
2022/02/27 10:26:38;;;;;;;0.13;0.13;;;;;;;;;;4957210;28;20504;-91
2022/02/27 10:29:14;;;;;;;0.10;0.10;;;;;;;;;;4957702;28;20158;-90
2022/02/27 10:31:41;;;;;;;0.10;0.10;;;;;;;;;;4951802;29;20130;-90
2022/02/27 10:34:20;;;;;;;0.13;0.13;;;;;;;;;;4937795;29;20175;-89
2022/02/27 10:36:58;;;;;;;0.17;0.17;;;;;;;;;;4954194;29;20093;-90
2022/02/27 10:39:44;;;;;;;0.10;0.10;;;;;;;;;;4956302;28;20058;-90
2022/02/27 10:42:25;;;;;;;0.20;0.20;;;;;;;;;;4989129;28;20525;-91
2022/02/27 10:44:52;;;;;;;0.10;0.10;;;;;;;;;;4973353;28;20051;-90
2022/02/27 10:47:22;;;;;;;0.20;0.20;;;;;;;;;;4957017;28;20050;-90
2022/02/27 10:49:49;;;;;;;0.10;0.10;;;;;;;;;;4941070;28;20443;-90
2022/02/27 10:52:16;;;;;;;0.10;0.10;;;;;;;;;;4958167;28;20093;-92
2022/02/27 10:54:45;;;;;;;0.10;0.10;;;;;;;;;;4941548;28;20505;-92
2022/02/27 10:57:11;;;;;;;0.10;0.10;;;;;;;;;;4944536;28;20038;-93
2022/02/27 10:59:39;;;;;;;0.10;0.10;;;;;;;;;;4957335;28;20085;-93
2022/02/27 11:02:05;;;;;;;0.10;0.10;;;;;;;;;;4957592;28;20054;-93
2022/02/27 11:04:32;;;;;;;0.10;0.10;;;;;;;;;;4957258;28;20057;-92
2022/02/27 11:06:58;;;;;;;0.10;0.10;;;;;;;;;;4941935;28;20050;-93
2022/02/27 11:09:24;;;;;;;0.10;0.10;;;;;;;;;;4941520;28;20058;-93
2022/02/27 11:11:50;;;;;;;0.10;0.10;;;;;;;;;;4941369;28;20053;-95
2022/02/27 11:14:16;;;;;;;0.10;0.10;;;;;;;;;;4957565;28;20106;-94
2022/02/27 11:16:42;;;;;;;0.10;0.10;;;;;;;;;;4941567;28;20078;-94
2022/02/27 11:19:08;;;;;;;0.10;0.10;;;;;;;;;;4947130;28;20042;-92
2022/02/27 11:21:34;;;;;;;0.10;0.10;;;;;;;;;;4945157;28;20202;-94
2022/02/27 11:24:00;;;;;;;0.10;0.10;;;;;;;;;;4961103;28;20086;-94
2022/02/27 11:26:26;;;;;;;0.63;0.63;;;;;;;;;;4945085;28;20047;-94
2022/02/27 11:28:52;;;;;;;0.20;0.20;;;;;;;;;;4945590;28;20126;-94
2022/02/27 11:31:18;;;;;;;0.47;0.47;;;;;;;;;;4961068;28;20618;-93
2022/02/27 11:33:44;;;;;;;0.20;0.20;;;;;;;;;;4944972;28;20046;-91
2022/02/27 11:36:20;;;;;;;0.10;0.10;;;;;;;;;;4946357;28;20066;-94
2022/02/27 11:38:46;;;;;;;0.47;0.30;;;;;;;;;;4945231;28;20039;-93
2022/02/27 11:41:18;;;;;;;0.17;0.17;;;;;;;;;;4961114;28;20038;-94
2022/02/27 11:43:50;;;;;;;0.10;0.10;;;;;;;;;;4944528;28;20043;-93
2022/02/27 11:46:16;;;;;;;0.27;0.10;;;;;;;;;;4945431;28;20173;-93
2022/02/27 11:48:55;;;;;;;0.10;0.10;;;;;;;;;;4960361;28;20039;-92
2022/02/27 11:51:36;;;;;;;0.10;0.10;;;;;;;;;;4993369;28;20046;-93
2022/02/27 11:54:14;;;;;;;0.10;0.10;;;;;;;;;;4992841;28;20486;-93
2022/02/27 11:56:40;;;;;;;0.10;0.10;;;;;;;;;;4944998;28;20498;-93
2022/02/27 11:59:08;;;;;;;0.20;0.20;;;;;;;;;;4951553;28;20049;-95
2022/02/27 12:01:50;;;;;;;0.10;0.10;;;;;;;;;;4947483;28;20426;-92
2022/02/27 12:04:19;;;;;;;0.10;0.10;;;;;;;;;;4992143;28;20070;-92
2022/02/27 12:06:58;;;;;;;0.10;0.10;;;;;;;;;;4976029;28;20042;-90
2022/02/27 12:09:24;;;;;;;0.10;0.10;;;;;;;;;;4944098;28;20402;-91
2022/02/27 12:11:50;;;;;;;0.43;0.43;;;;;;;;;;4943714;28;20047;-95
2022/02/27 12:14:16;;;;;;;0.10;0.10;;;;;;;;;;4945125;28;20494;-91
2022/02/27 12:16:42;;;;;;;0.30;0.30;;;;;;;;;;4944379;28;20042;-91
2022/02/27 12:19:21;;;;;;;0.10;0.10;;;;;;;;;;4943892;28;20043;-90
2022/02/27 12:21:49;;;;;;;0.10;0.10;;;;;;;;;;4975697;28;20209;-91
2022/02/27 12:24:21;;;;;;;0.00;0.00;;;;;;;;;;4975403;28;20043;-94
2022/02/27 12:26:48;;;;;;;0.10;0.10;;;;;;;;;;4991701;28;20043;-91
2022/02/27 12:29:23;;;;;;;0.20;0.20;;;;;;;;;;4942619;28;20070;-92
2022/02/27 12:31:49;;;;;;;0.00;0.00;;;;;;;;;;4975618;28;20038;-92
2022/02/27 12:34:19;;;;;;;0.15;0.15;;;;;;;;;;4975616;28;20039;-93
2022/02/27 12:36:48;;;;;;;0.10;0.10;;;;;;;;;;4943520;28;20038;-92
2022/02/27 12:39:15;;;;;;;0.00;0.00;;;;;;;;;;4943504;28;20486;-93
2022/02/27 12:41:42;;;;;;;0.10;0.10;;;;;;;;;;4944306;28;20065;-94
2022/02/27 12:44:10;;;;;;;0.10;0.10;;;;;;;;;;4943795;28;20047;-94
2022/02/27 12:46:36;;;;;;;0.20;0.20;;;;;;;;;;4943715;28;20054;-93
2022/02/27 12:51:47;;;;;;;0.10;0.10;;;;;;;;;;4962531;28;20051;-94
2022/02/27 12:54:14;;;;;;;0.20;0.20;;;;;;;;;;4975335;28;20035;-93
2022/02/27 12:56:40;;;;;;;0.10;0.10;;;;;;;;;;4975373;28;20043;-94
2022/02/27 12:59:06;;;;;;;0.47;0.22;;;;;;;;;;4943222;28;20101;-94
2022/02/27 13:01:32;;;;;;;0.20;0.17;;;;;;;;;;4943302;28;20039;-93
2022/02/27 13:04:06;;;;;;;0.43;0.43;;;;;;;;;;4942878;28;20054;-92
2022/02/27 13:06:36;;;;;;;0.10;0.10;;;;;;;;;;4974833;28;20057;-92
2022/02/27 13:09:09;;;;;;;0.10;0.10;;;;;;;;;;4942646;28;20047;-90
2022/02/27 13:11:41;;;;;;;0.10;0.10;;;;;;;;;;4975043;28;20045;-91
2022/02/27 13:14:07;;;;;;;0.10;0.10;;;;;;;;;;4974928;28;20482;-90
2022/02/27 13:16:34;;;;;;;0.30;0.30;;;;;;;;;;4974713;28;20042;-92
2022/02/27 13:19:00;;;;;;;0.40;0.40;;;;;;;;;;4975188;28;20074;-96
2022/02/27 13:21:26;;;;;;;0.20;0.20;;;;;;;;;;4978191;28;20090;-93
2022/02/27 13:23:59;;;;;;;0.10;0.10;;;;;;;;;;4944611;28;20038;-93
2022/02/27 13:26:25;;;;;;;0.10;0.10;;;;;;;;;;4976702;28;20048;-91
2022/02/27 13:28:58;;;;;;;0.10;0.10;;;;;;;;;;4993699;28;20129;-92
2022/02/27 13:31:27;;;;;;;0.10;0.10;;;;;;;;;;4943410;28;20129;-92
2022/02/27 13:33:53;;;;;;;0.17;0.17;;;;;;;;;;4942118;28;20039;-90
2022/02/27 13:36:20;;;;;;;0.10;0.10;;;;;;;;;;4941762;28;20043;-90
2022/02/27 13:38:47;;;;;;;0.10;0.10;;;;;;;;;;4989328;28;20082;-90
2022/02/27 13:41:13;;;;;;;0.10;0.10;;;;;;;;;;4972588;28;20049;-90
2022/02/27 13:43:40;;;;;;;0.10;0.10;;;;;;;;;;4973212;28;20039;-89
2022/02/27 13:46:07;;;;;;;0.10;0.10;;;;;;;;;;4973128;28;20081;-91
2022/02/27 13:48:34;;;;;;;0.63;0.43;;;;;;;;;;4974179;28;20051;-90
2022/02/27 13:51:00;;;;;;;0.10;0.10;;;;;;;;;;4941967;28;20085;-89
2022/02/27 13:53:30;;;;;;;0.10;0.10;;;;;;;;;;4973885;28;20039;-94
2022/02/27 13:56:05;;;;;;;0.20;0.20;;;;;;;;;;4941608;28;20070;-91
2022/02/27 13:58:31;;;;;;;0.15;0.15;;;;;;;;;;4941602;28;20450;-91
2022/02/27 14:01:04;;;;;;;0.38;0.38;;;;;;;;;;4973687;28;20046;-92
2022/02/27 14:03:34;;;;;;;0.20;0.20;;;;;;;;;;4941759;28;20119;-92
2022/02/27 14:06:01;;;;;;;0.13;0.13;;;;;;;;;;4974122;28;20054;-94
2022/02/27 14:08:27;;;;;;;0.20;0.20;;;;;;;;;;4941286;28;20055;-90
2022/02/27 14:11:10;;;;;;;0.22;0.22;;;;;;;;;;4941052;28;20166;-91
2022/02/27 14:13:40;;;;;;;0.10;0.10;;;;;;;;;;4973292;28;20038;-91
2022/02/27 14:16:06;;;;;;;0.10;0.10;;;;;;;;;;4973635;28;20038;-93
2022/02/27 14:18:35;;;;;;;0.70;0.32;;;;;;;;;;4973986;28;20041;-92
2022/02/27 14:21:03;;;;;;;0.20;0.20;;;;;;;;;;4941553;28;20042;-92
2022/02/27 14:23:30;;;;;;;1.85;0.20;;;;;;;;;;4941331;28;20185;-92
2022/02/27 14:25:56;;;;;;;0.10;0.10;;;;;;;;;;4941386;28;20130;-92
2022/02/27 14:28:23;;;;;;;0.10;0.10;;;;;;;;;;4941317;28;20038;-91
2022/02/27 14:30:49;;;;;;;0.10;0.10;;;;;;;;;;4941371;28;20564;-91
2022/02/27 14:33:16;;;;;;;0.35;0.35;;;;;;;;;;4973121;28;20038;-91
2022/02/27 14:35:42;;;;;;;0.28;0.28;;;;;;;;;;4941395;28;20391;-91
2022/02/27 14:38:08;;;;;;;0.10;0.10;;;;;;;;;;4973365;28;20045;-92
2022/02/27 14:40:35;;;;;;;0.10;0.10;;;;;;;;;;4973255;28;20406;-92
2022/02/27 14:43:01;;;;;;;0.13;0.13;;;;;;;;;;4973004;28;20058;-91
2022/02/27 14:45:29;;;;;;;0.10;0.10;;;;;;;;;;4972549;28;20050;-92
2022/02/27 14:47:55;;;;;;;0.10;0.10;;;;;;;;;;4941465;28;20632;-91
2022/02/27 14:50:21;;;;;;;0.10;0.10;;;;;;;;;;4940739;28;20058;-92
2022/02/27 14:52:47;;;;;;;0.15;0.15;;;;;;;;;;4945782;28;20085;-91
2022/02/27 14:55:13;;;;;;;0.10;0.10;;;;;;;;;;4979127;28;20049;-92